Time;durP1;ratioP1;P1;durP2;ratioP2;P2;SDS_P1;SDS_P2;PMS_P1;PMS_P2;Temp;Humidity;BMP_temperature;BMP_pressure;BME280_temperature;BME280_humidity;BME280_pressure;Samples;Min_cycle;Max_cycle;Signal;HPM_P1;HPM_P2
2022/02/21 00:02:00;;;;;;;0.40;0.20;;;18.70;47.80;;;;;;6147732;29;20035;-66
2022/02/21 00:05:01;;;;;;;0.10;0.10;;;18.70;47.70;;;;;;6147489;29;20042;-67
2022/02/21 00:08:01;;;;;;;0.10;0.10;;;18.70;47.70;;;;;;6165097;28;20498;-66
2022/02/21 00:11:02;;;;;;;0.38;0.10;;;18.70;47.70;;;;;;6171572;28;20027;-66
2022/02/21 00:14:03;;;;;;;0.30;0.13;;;18.70;47.80;;;;;;6171315;28;20064;-65
2022/02/21 00:17:03;;;;;;;0.20;0.20;;;18.70;47.70;;;;;;6171272;28;20050;-66
2022/02/21 00:20:05;;;;;;;0.10;0.10;;;18.70;47.70;;;;;;6171189;28;20063;-65
2022/02/21 00:23:07;;;;;;;0.20;0.10;;;18.70;47.70;;;;;;6170927;28;20091;-66
2022/02/21 00:26:08;;;;;;;0.68;0.20;;;18.70;47.70;;;;;;6171348;28;20039;-66
2022/02/21 00:29:11;;;;;;;0.40;0.20;;;18.70;47.70;;;;;;6170667;28;20130;-66
2022/02/21 00:32:11;;;;;;;0.30;0.17;;;18.70;47.70;;;;;;6167985;28;20062;-66
2022/02/21 00:35:12;;;;;;;0.17;0.17;;;18.70;47.80;;;;;;6146951;28;20047;-65
2022/02/21 00:38:12;;;;;;;0.20;0.20;;;18.70;47.80;;;;;;6147164;28;20394;-66
2022/02/21 00:41:13;;;;;;;0.20;0.20;;;18.70;47.70;;;;;;6146421;28;20042;-65
2022/02/21 00:44:13;;;;;;;0.10;0.10;;;18.70;47.80;;;;;;6146843;29;20024;-66
2022/02/21 00:47:14;;;;;;;0.25;0.10;;;18.70;47.80;;;;;;6146758;29;20023;-66
2022/02/21 00:50:15;;;;;;;0.20;0.17;;;18.70;47.70;;;;;;6146871;29;20030;-66
2022/02/21 00:53:15;;;;;;;0.10;0.10;;;18.70;47.80;;;;;;6146393;29;20034;-66
2022/02/21 00:56:16;;;;;;;0.20;0.20;;;18.70;47.80;;;;;;6146242;29;20063;-65
2022/02/21 00:59:16;;;;;;;0.03;0.03;;;18.70;47.80;;;;;;6146677;29;20149;-66
2022/02/21 01:02:17;;;;;;;0.20;0.20;;;18.70;47.70;;;;;;6146536;29;20027;-65
2022/02/21 01:05:18;;;;;;;0.40;0.20;;;18.70;47.80;;;;;;6158462;28;20038;-66
2022/02/21 01:08:18;;;;;;;0.10;0.10;;;18.70;47.70;;;;;;6170737;28;20030;-66
2022/02/21 01:11:20;;;;;;;0.10;0.10;;;18.70;47.70;;;;;;6170260;28;20494;-66
2022/02/21 01:14:21;;;;;;;0.28;0.20;;;18.70;47.80;;;;;;6170024;28;20505;-66
2022/02/21 01:17:22;;;;;;;0.30;0.20;;;18.70;47.80;;;;;;6170173;28;20046;-66
2022/02/21 01:20:23;;;;;;;0.70;0.30;;;18.70;47.80;;;;;;6169829;28;20467;-65
2022/02/21 01:23:23;;;;;;;0.15;0.10;;;18.70;47.80;;;;;;6169736;28;20026;-66
2022/02/21 01:26:24;;;;;;;0.40;0.20;;;18.70;47.80;;;;;;6170004;28;20312;-66
2022/02/21 01:29:25;;;;;;;0.35;0.20;;;18.70;47.70;;;;;;6169173;28;20080;-66
2022/02/21 01:32:26;;;;;;;0.20;0.20;;;18.70;47.80;;;;;;6165473;28;20027;-66
2022/02/21 01:35:26;;;;;;;0.65;0.17;;;18.70;47.80;;;;;;6145824;28;20050;-66
2022/02/21 01:38:27;;;;;;;0.40;0.30;;;18.70;47.80;;;;;;6146476;28;20438;-66
2022/02/21 01:41:27;;;;;;;0.10;0.10;;;18.70;47.80;;;;;;6146519;28;20027;-66
2022/02/21 01:44:45;;;;;;;0.20;0.10;;;18.70;47.80;;;;;;6160764;28;20027;-66
2022/02/21 01:47:46;;;;;;;0.10;0.10;;;18.70;47.80;;;;;;6174902;28;20518;-66
2022/02/21 01:50:46;;;;;;;0.20;0.15;;;18.70;47.80;;;;;;6174492;28;20027;-66
2022/02/21 01:53:47;;;;;;;0.73;0.40;;;18.70;47.80;;;;;;6174473;28;20131;-66
2022/02/21 01:56:47;;;;;;;0.20;0.20;;;18.70;47.80;;;;;;6174101;28;20055;-66
2022/02/21 01:59:48;;;;;;;0.43;0.28;;;18.70;47.70;;;;;;6174582;28;20089;-66
2022/02/21 02:02:48;;;;;;;0.60;0.28;;;18.70;47.70;;;;;;6173849;28;20041;-66
2022/02/21 02:05:49;;;;;;;0.25;0.20;;;18.70;47.80;;;;;;6174627;28;20035;-66
2022/02/21 02:08:49;;;;;;;0.50;0.20;;;18.70;47.80;;;;;;6174119;28;20027;-66
2022/02/21 02:11:51;;;;;;;0.32;0.20;;;18.70;47.70;;;;;;6174427;28;20109;-66
2022/02/21 02:14:52;;;;;;;2.70;0.22;;;18.70;47.80;;;;;;6174140;28;20051;-66
2022/02/21 02:17:53;;;;;;;0.20;0.10;;;18.70;47.60;;;;;;6174318;28;20053;-66
2022/02/21 02:20:53;;;;;;;0.28;0.20;;;18.70;47.70;;;;;;6173943;28;20541;-65
2022/02/21 02:23:55;;;;;;;0.85;0.30;;;18.70;47.70;;;;;;6172601;28;20019;-66
2022/02/21 02:26:56;;;;;;;0.30;0.20;;;18.70;47.70;;;;;;6174039;28;20019;-66
2022/02/21 02:29:59;;;;;;;0.20;0.20;;;18.70;47.70;;;;;;6173900;28;20449;-66
2022/02/21 02:33:00;;;;;;;0.30;0.20;;;18.70;47.70;;;;;;6164502;28;20027;-66
2022/02/21 02:36:00;;;;;;;0.30;0.25;;;18.70;47.80;;;;;;6149642;28;20521;-66
2022/02/21 02:39:01;;;;;;;0.75;0.22;;;18.70;47.80;;;;;;6149363;28;20087;-66
2022/02/21 02:42:02;;;;;;;0.30;0.20;;;18.70;47.80;;;;;;6149456;28;20482;-66
2022/02/21 02:45:03;;;;;;;0.10;0.10;;;18.70;47.80;;;;;;6149626;29;20035;-66
2022/02/21 02:48:04;;;;;;;1.00;0.30;;;18.70;47.70;;;;;;6149975;29;20066;-66
2022/02/21 02:51:04;;;;;;;0.20;0.10;;;18.70;47.80;;;;;;6149475;29;20063;-66
2022/02/21 02:54:06;;;;;;;0.82;0.30;;;18.70;47.70;;;;;;6149022;28;20244;-66
2022/02/21 02:57:07;;;;;;;0.28;0.10;;;18.70;47.80;;;;;;6148964;29;20126;-66
2022/02/21 03:00:13;;;;;;;0.20;0.20;;;18.70;47.80;;;;;;6149148;29;20059;-65
2022/02/21 03:03:14;;;;;;;0.30;0.10;;;18.70;47.90;;;;;;6148704;29;20431;-65
2022/02/21 03:06:15;;;;;;;0.77;0.10;;;18.70;47.90;;;;;;6152291;28;20109;-65
2022/02/21 03:09:15;;;;;;;0.15;0.15;;;18.70;47.90;;;;;;6172995;28;20023;-65
2022/02/21 03:12:16;;;;;;;0.30;0.20;;;18.70;47.80;;;;;;6172917;28;20042;-66
2022/02/21 03:15:16;;;;;;;0.13;0.10;;;18.60;47.70;;;;;;6172734;28;20031;-66
2022/02/21 03:18:17;;;;;;;1.33;0.20;;;18.70;47.70;;;;;;6172604;28;20056;-66
2022/02/21 03:21:17;;;;;;;0.43;0.28;;;18.70;47.80;;;;;;6172549;28;20054;-65
2022/02/21 03:24:18;;;;;;;2.78;0.30;;;18.60;47.70;;;;;;6172118;28;20500;-66
2022/02/21 03:27:18;;;;;;;0.25;0.25;;;18.60;47.50;;;;;;6172460;28;20022;-66
2022/02/21 03:30:19;;;;;;;0.30;0.20;;;18.70;47.70;;;;;;6172417;28;20027;-66
2022/02/21 03:33:21;;;;;;;0.45;0.20;;;18.70;47.70;;;;;;6160409;28;20034;-65
2022/02/21 03:36:21;;;;;;;0.40;0.20;;;18.70;47.70;;;;;;6148995;28;20380;-66
2022/02/21 03:39:22;;;;;;;0.20;0.20;;;18.70;47.60;;;;;;6148369;28;20389;-66
2022/02/21 03:42:22;;;;;;;0.40;0.20;;;18.70;47.50;;;;;;6147863;28;20024;-66
2022/02/21 03:45:23;;;;;;;0.50;0.22;;;18.70;47.70;;;;;;6148221;29;20038;-66
2022/02/21 03:48:24;;;;;;;0.52;0.20;;;18.60;47.60;;;;;;6147950;29;20412;-66
2022/02/21 03:51:24;;;;;;;0.20;0.20;;;18.70;47.60;;;;;;6148019;29;20054;-66
2022/02/21 03:54:25;;;;;;;0.40;0.20;;;18.70;47.70;;;;;;6147499;29;20510;-66
2022/02/21 03:57:25;;;;;;;0.63;0.25;;;18.70;47.60;;;;;;6147610;29;20530;-66
2022/02/21 04:00:26;;;;;;;0.43;0.20;;;18.70;47.50;;;;;;6147908;29;20031;-66
2022/02/21 04:03:27;;;;;;;0.35;0.20;;;18.70;47.60;;;;;;6147438;28;20028;-66
2022/02/21 04:06:27;;;;;;;0.77;0.25;;;18.70;47.60;;;;;;6152019;28;20543;-66
2022/02/21 04:09:28;;;;;;;0.73;0.10;;;18.60;47.60;;;;;;6171372;28;20438;-66
2022/02/21 04:12:28;;;;;;;0.15;0.10;;;18.70;47.70;;;;;;6171536;28;20060;-66
2022/02/21 04:15:29;;;;;;;0.93;0.25;;;18.60;47.60;;;;;;6171326;28;20134;-66
2022/02/21 04:18:29;;;;;;;0.80;0.30;;;18.70;47.70;;;;;;6170675;28;20442;-66
2022/02/21 04:21:30;;;;;;;0.25;0.10;;;18.70;47.70;;;;;;6171107;28;20026;-65
2022/02/21 04:24:31;;;;;;;0.82;0.20;;;18.70;47.70;;;;;;6171231;28;20023;-66
2022/02/21 04:27:42;;;;;;;0.10;0.10;;;18.70;47.60;;;;;;6170618;28;20046;-66
2022/02/21 04:30:43;;;;;;;0.95;0.30;;;18.70;47.60;;;;;;6170930;28;20019;-66
2022/02/21 04:33:44;;;;;;;0.40;0.20;;;18.60;47.50;;;;;;6155970;28;20461;-66
2022/02/21 04:36:45;;;;;;;0.38;0.20;;;18.60;47.60;;;;;;6146845;28;20031;-66
2022/02/21 04:39:45;;;;;;;0.20;0.10;;;18.60;47.60;;;;;;6146801;28;20078;-65
2022/02/21 04:42:48;;;;;;;0.30;0.10;;;18.60;47.50;;;;;;6146962;28;20051;-66
2022/02/21 04:45:54;;;;;;;0.38;0.20;;;18.60;47.60;;;;;;6146801;29;20058;-66
2022/02/21 04:48:55;;;;;;;0.25;0.25;;;18.60;47.50;;;;;;6146230;29;20118;-66
2022/02/21 04:51:57;;;;;;;0.20;0.10;;;18.70;47.50;;;;;;6146452;29;20027;-66
2022/02/21 04:54:58;;;;;;;0.10;0.10;;;18.70;47.60;;;;;;6146057;29;20459;-66
2022/02/21 04:57:58;;;;;;;0.45;0.20;;;18.70;47.70;;;;;;6146330;29;20115;-65
2022/02/21 05:00:59;;;;;;;0.10;0.10;;;18.60;47.50;;;;;;6146513;29;20494;-66
2022/02/21 05:03:59;;;;;;;0.47;0.20;;;18.60;47.60;;;;;;6146097;29;20024;-66
2022/02/21 05:07:00;;;;;;;0.10;0.10;;;18.60;47.40;;;;;;6155751;28;20023;-66
2022/02/21 05:10:00;;;;;;;0.65;0.20;;;18.70;47.60;;;;;;6170355;28;20027;-66
2022/02/21 05:13:01;;;;;;;0.17;0.10;;;18.70;47.60;;;;;;6170070;28;20027;-66
2022/02/21 05:16:01;;;;;;;0.10;0.10;;;18.60;47.40;;;;;;6169370;28;20077;-66
2022/02/21 05:19:02;;;;;;;0.20;0.20;;;18.70;47.50;;;;;;6170360;28;20043;-66
2022/02/21 05:22:03;;;;;;;0.30;0.20;;;18.60;47.40;;;;;;6169690;28;20050;-66
2022/02/21 05:25:05;;;;;;;0.10;0.10;;;18.70;47.50;;;;;;6169674;28;20038;-66
2022/02/21 05:28:07;;;;;;;0.30;0.20;;;18.70;47.40;;;;;;6170145;28;20042;-65
2022/02/21 05:31:07;;;;;;;0.17;0.10;;;18.70;47.40;;;;;;6169947;28;20398;-64
2022/02/21 05:34:08;;;;;;;0.25;0.13;;;18.70;47.40;;;;;;6151638;28;20034;-66
2022/02/21 05:37:09;;;;;;;0.20;0.20;;;18.70;48.10;;;;;;6145876;28;20027;-66
2022/02/21 05:40:10;;;;;;;0.20;0.15;;;18.70;47.30;;;;;;6145850;28;20039;-66
2022/02/21 05:43:11;;;;;;;0.35;0.20;;;18.70;47.30;;;;;;6145778;28;20039;-66
2022/02/21 05:46:11;;;;;;;0.43;0.20;;;18.70;47.30;;;;;;6145624;29;20469;-66
2022/02/21 05:49:12;;;;;;;0.45;0.28;;;18.70;48.10;;;;;;6145752;29;20118;-66
2022/02/21 05:52:12;;;;;;;0.30;0.20;;;18.70;47.30;;;;;;6145557;29;20023;-66
2022/02/21 05:55:13;;;;;;;0.28;0.20;;;18.70;47.30;;;;;;6145837;29;20098;-66
2022/02/21 05:58:13;;;;;;;1.08;0.20;;;18.70;47.20;;;;;;6145581;29;20046;-66
2022/02/21 06:01:14;;;;;;;0.40;0.20;;;18.70;47.20;;;;;;6145737;28;20032;-65
2022/02/21 06:04:15;;;;;;;0.28;0.28;;;18.70;47.20;;;;;;6146130;28;20106;-65
2022/02/21 06:07:17;;;;;;;0.20;0.20;;;18.70;47.20;;;;;;6157398;28;20027;-66
2022/02/21 06:10:18;;;;;;;0.20;0.20;;;18.70;47.20;;;;;;6169157;28;20026;-66
2022/02/21 06:13:18;;;;;;;0.70;0.30;;;18.70;47.20;;;;;;6170007;28;20033;-66
2022/02/21 06:16:19;;;;;;;0.43;0.20;;;18.70;47.10;;;;;;6169283;28;20026;-66
2022/02/21 06:19:20;;;;;;;0.80;0.40;;;18.70;47.30;;;;;;6154777;28;20065;-66
2022/02/21 06:22:22;;;;;;;0.82;0.30;;;18.70;47.10;;;;;;6167541;28;20430;-66
2022/02/21 06:25:22;;;;;;;0.60;0.30;;;18.70;47.00;;;;;;6164528;28;20045;-65
2022/02/21 06:28:24;;;;;;;1.17;0.35;;;18.70;47.20;;;;;;6170306;28;20026;-65
2022/02/21 06:31:25;;;;;;;1.83;0.38;;;18.70;47.00;;;;;;6172767;28;20019;-66
2022/02/21 06:34:25;;;;;;;1.65;0.40;;;18.70;47.20;;;;;;6155783;28;20117;-66
2022/02/21 06:37:26;;;;;;;1.33;0.20;;;18.80;47.20;;;;;;6171456;28;20062;-66
2022/02/21 06:40:27;;;;;;;2.10;0.60;;;18.70;47.20;;;;;;6159575;28;20195;-66
2022/02/21 06:43:28;;;;;;;1.10;0.40;;;18.80;47.10;;;;;;6156584;28;20065;-65
2022/02/21 06:46:28;;;;;;;1.05;0.50;;;18.80;47.20;;;;;;6171912;28;20030;-66
2022/02/21 06:49:29;;;;;;;1.90;0.50;;;18.80;47.20;;;;;;6161769;28;20033;-66
2022/02/21 06:52:30;;;;;;;0.88;0.45;;;18.80;47.20;;;;;;6171057;28;20027;-66
2022/02/21 06:55:30;;;;;;;1.58;0.50;;;18.80;47.10;;;;;;6171199;28;20221;-66
2022/02/21 06:58:31;;;;;;;2.05;0.68;;;18.80;47.10;;;;;;6171586;28;20105;-66
2022/02/21 07:01:31;;;;;;;1.20;0.55;;;18.80;47.10;;;;;;6167017;28;20030;-66
2022/02/21 07:04:32;;;;;;;1.55;0.60;;;18.80;47.10;;;;;;6173109;28;20035;-66
2022/02/21 07:07:33;;;;;;;1.55;0.55;;;18.80;47.20;;;;;;6173687;28;20015;-66
2022/02/21 07:10:34;;;;;;;3.97;0.85;;;18.80;47.20;;;;;;6173331;28;20081;-66
2022/02/21 07:13:35;;;;;;;2.20;0.50;;;18.80;47.20;;;;;;6171369;28;20027;-66
2022/02/21 07:16:36;;;;;;;1.75;0.40;;;18.80;47.30;;;;;;6173156;28;20442;-66
2022/02/21 07:19:37;;;;;;;4.07;0.70;;;18.80;47.40;;;;;;6173218;28;20034;-65
2022/02/21 07:22:37;;;;;;;1.95;0.65;;;18.80;47.40;;;;;;6173325;28;20502;-66
2022/02/21 07:25:38;;;;;;;1.30;0.40;;;18.80;47.40;;;;;;6172764;28;20023;-66
2022/02/21 07:28:38;;;;;;;2.22;0.63;;;18.80;47.40;;;;;;6172753;28;20446;-66
2022/02/21 07:31:39;;;;;;;1.65;0.70;;;18.80;47.40;;;;;;6173234;28;20019;-66
2022/02/21 07:34:39;;;;;;;4.07;0.68;;;18.80;47.50;;;;;;6172781;28;20034;-66
2022/02/21 07:37:40;;;;;;;0.60;0.40;;;18.80;47.50;;;;;;6172878;28;20362;-66
2022/02/21 07:40:41;;;;;;;2.10;0.60;;;18.80;47.40;;;;;;6171766;28;20530;-66
2022/02/21 07:43:41;;;;;;;1.13;0.70;;;18.80;47.40;;;;;;6151339;28;20058;-66
2022/02/21 07:46:42;;;;;;;1.80;0.50;;;18.80;47.40;;;;;;6156315;28;20110;-67
2022/02/21 07:49:43;;;;;;;3.03;0.77;;;18.80;47.70;;;;;;6174182;28;20023;-66
2022/02/21 07:52:44;;;;;;;3.97;1.27;;;18.80;47.10;;;;;;6173677;28;20034;-66
2022/02/21 07:55:44;;;;;;;4.22;1.15;;;18.80;45.90;;;;;;6173536;28;20121;-66
2022/02/21 07:58:45;;;;;;;4.97;0.93;;;18.80;45.80;;;;;;6174076;28;20042;-66
2022/02/21 08:01:45;;;;;;;3.05;0.70;;;18.80;46.00;;;;;;6173862;28;20498;-66
2022/02/21 08:04:46;;;;;;;9.73;1.48;;;18.80;46.30;;;;;;6173298;28;20058;-67
2022/02/21 08:07:47;;;;;;;6.03;1.63;;;18.80;46.30;;;;;;6173464;28;20381;-66
2022/02/21 08:10:47;;;;;;;3.90;1.17;;;18.80;46.50;;;;;;6173537;28;20027;-66
2022/02/21 08:13:48;;;;;;;8.65;1.30;;;18.80;46.40;;;;;;6172902;28;20023;-66
2022/02/21 08:16:48;;;;;;;2.30;0.85;;;18.80;46.50;;;;;;6173085;28;20031;-68
2022/02/21 08:19:49;;;;;;;3.55;0.93;;;18.80;46.50;;;;;;6172992;28;20035;-66
2022/02/21 08:22:51;;;;;;;5.10;1.17;;;18.80;46.50;;;;;;6173250;28;20034;-66
2022/02/21 08:25:51;;;;;;;3.58;1.45;;;18.80;46.50;;;;;;6172705;28;20409;-67
2022/02/21 08:28:52;;;;;;;3.42;0.90;;;18.80;46.50;;;;;;6173225;28;20035;-66
2022/02/21 08:31:54;;;;;;;3.03;0.80;;;18.80;46.50;;;;;;6172738;28;20038;-65
2022/02/21 08:34:54;;;;;;;4.68;1.38;;;18.80;46.50;;;;;;6173023;28;20037;-67
2022/02/21 08:37:56;;;;;;;4.65;1.13;;;18.80;46.50;;;;;;6172954;28;20031;-66
2022/02/21 08:40:57;;;;;;;3.50;1.13;;;18.70;47.20;;;;;;6172568;28;20027;-67
2022/02/21 08:43:57;;;;;;;4.38;1.30;;;18.80;46.50;;;;;;6147521;28;20027;-66
2022/02/21 08:46:58;;;;;;;11.68;1.02;;;18.80;46.50;;;;;;6148794;29;20027;-64
2022/02/21 08:49:59;;;;;;;3.33;1.17;;;18.80;46.50;;;;;;6148420;28;20034;-67
2022/02/21 08:52:59;;;;;;;2.83;1.00;;;18.80;46.50;;;;;;6148414;29;20035;-66
2022/02/21 08:56:00;;;;;;;1.52;0.80;;;18.70;46.30;;;;;;6148175;29;20059;-66
2022/02/21 08:59:01;;;;;;;3.45;1.55;;;18.80;46.40;;;;;;6146693;29;20047;-67
2022/02/21 09:02:02;;;;;;;2.65;0.90;;;18.80;46.40;;;;;;6148271;29;20032;-67
2022/02/21 09:05:03;;;;;;;2.85;0.77;;;18.80;46.30;;;;;;6148519;29;20510;-67
2022/02/21 09:08:05;;;;;;;2.90;1.08;;;18.80;46.20;;;;;;6165910;28;20093;-67
2022/02/21 09:11:05;;;;;;;2.67;1.10;;;18.70;46.30;;;;;;6172364;28;20027;-67
2022/02/21 09:14:06;;;;;;;3.05;1.10;;;18.70;46.20;;;;;;6172298;28;20034;-67
2022/02/21 09:17:06;;;;;;;3.13;1.23;;;18.70;46.10;;;;;;6172140;28;20498;-67
2022/02/21 09:20:08;;;;;;;2.30;0.88;;;18.70;46.20;;;;;;6171949;28;20445;-67
2022/02/21 09:23:08;;;;;;;1.85;0.70;;;18.80;46.10;;;;;;6172089;28;20034;-66
2022/02/21 09:26:09;;;;;;;4.57;1.42;;;18.80;46.40;;;;;;6171839;28;20038;-67
2022/02/21 09:29:09;;;;;;;2.00;0.95;;;18.80;46.30;;;;;;6172311;28;20059;-67
2022/02/21 09:32:10;;;;;;;4.75;1.33;;;18.80;46.40;;;;;;6169305;28;20386;-67
2022/02/21 09:35:11;;;;;;;2.55;0.93;;;18.80;46.50;;;;;;6147709;28;20026;-67
2022/02/21 09:38:12;;;;;;;2.85;1.15;;;18.80;46.50;;;;;;6147761;28;20035;-67
2022/02/21 09:41:13;;;;;;;3.45;0.85;;;18.70;46.30;;;;;;6148020;28;20391;-67
2022/02/21 09:44:14;;;;;;;2.25;1.05;;;18.80;46.40;;;;;;6147724;29;20024;-66
2022/02/21 09:47:16;;;;;;;3.92;1.13;;;18.70;46.30;;;;;;6147728;29;20031;-67
2022/02/21 09:50:17;;;;;;;3.05;0.90;;;18.80;46.50;;;;;;6148292;29;20058;-67
2022/02/21 09:53:17;;;;;;;6.68;1.10;;;18.70;46.30;;;;;;6146410;29;20078;-66
2022/02/21 09:56:18;;;;;;;3.47;0.90;;;18.70;46.30;;;;;;6147440;29;20055;-67
2022/02/21 09:59:19;;;;;;;2.78;1.10;;;18.80;46.40;;;;;;6147863;29;20031;-66
2022/02/21 10:02:26;;;;;;;2.78;1.08;;;18.70;46.20;;;;;;6148302;28;20035;-66
2022/02/21 10:05:28;;;;;;;4.10;0.90;;;18.80;46.40;;;;;;6152427;29;20027;-65
2022/02/21 10:08:29;;;;;;;2.60;0.90;;;18.80;46.30;;;;;;6173511;28;20105;-66
2022/02/21 10:11:33;;;;;;;3.00;1.17;;;18.80;46.40;;;;;;6176089;28;20033;-66
2022/02/21 10:14:37;;;;;;;2.03;0.80;;;18.80;46.30;;;;;;6176188;28;20062;-66
2022/02/21 10:17:37;;;;;;;3.85;1.25;;;18.70;46.30;;;;;;6175876;28;20030;-66
2022/02/21 10:21:10;;;;;;;2.97;0.98;;;18.80;46.40;;;;;;6176451;28;20038;-67
2022/02/21 10:24:11;;;;;;;2.75;0.90;;;18.80;46.30;;;;;;6153700;28;20045;-67
2022/02/21 10:27:15;;;;;;;3.28;1.40;;;18.80;46.40;;;;;;6190674;28;20118;-67
2022/02/21 10:30:16;;;;;;;3.35;1.00;;;18.70;46.30;;;;;;6175654;28;20510;-67
2022/02/21 10:33:16;;;;;;;1.95;0.80;;;18.70;46.30;;;;;;6164171;28;20028;-67
2022/02/21 10:36:28;;;;;;;1.95;0.90;;;18.70;46.20;;;;;;6151762;28;20038;-67
2022/02/21 10:39:29;;;;;;;2.55;0.90;;;18.70;46.10;;;;;;6151609;28;20038;-67
2022/02/21 10:42:32;;;;;;;3.30;1.00;;;18.80;46.20;;;;;;6151341;28;20360;-67
2022/02/21 10:45:32;;;;;;;2.90;0.93;;;18.70;46.20;;;;;;6151256;29;20019;-67
2022/02/21 10:48:40;;;;;;;3.35;0.93;;;18.70;46.00;;;;;;6151434;29;20020;-67
2022/02/21 10:51:46;;;;;;;2.25;0.90;;;18.70;46.10;;;;;;6151255;29;20380;-66
2022/02/21 10:54:47;;;;;;;2.55;0.98;;;18.80;46.10;;;;;;6147682;28;20497;-66
2022/02/21 10:57:47;;;;;;;3.53;0.95;;;18.80;46.10;;;;;;6171045;28;20045;-67
2022/02/21 11:00:51;;;;;;;5.50;1.10;;;18.70;45.90;;;;;;6172292;28;20486;-63
2022/02/21 11:03:53;;;;;;;3.35;1.15;;;18.70;46.10;;;;;;6172849;28;20034;-66
2022/02/21 11:06:55;;;;;;;3.20;1.13;;;18.70;46.10;;;;;;6172731;28;20038;-67
2022/02/21 11:10:00;;;;;;;2.95;0.95;;;18.70;46.00;;;;;;6172968;28;20529;-65
2022/02/21 11:13:04;;;;;;;3.13;0.95;;;18.70;46.00;;;;;;6171891;28;20034;-65
2022/02/21 11:16:05;;;;;;;3.30;1.10;;;18.80;46.20;;;;;;6172503;28;20544;-66
2022/02/21 11:19:06;;;;;;;2.63;1.10;;;18.70;46.30;;;;;;6172245;28;20046;-66
2022/02/21 11:22:07;;;;;;;4.00;1.15;;;18.80;46.40;;;;;;6173188;28;20042;-67
2022/02/21 11:25:16;;;;;;;4.13;1.08;;;18.70;46.30;;;;;;6171581;28;20031;-66
2022/02/21 11:28:23;;;;;;;4.88;0.90;;;18.70;46.40;;;;;;6172479;28;20026;-66
2022/02/21 11:31:32;;;;;;;2.47;0.93;;;18.80;46.50;;;;;;6173221;28;20023;-67
2022/02/21 11:34:46;;;;;;;3.17;0.95;;;18.80;46.50;;;;;;6163700;28;20113;-66
2022/02/21 11:37:47;;;;;;;2.70;0.98;;;18.80;46.50;;;;;;6172134;28;20031;-66
2022/02/21 11:40:53;;;;;;;6.80;1.00;;;18.80;46.50;;;;;;6179527;28;20035;-67
2022/02/21 11:43:54;;;;;;;3.67;0.98;;;18.80;46.40;;;;;;6172558;28;20049;-66
2022/02/21 11:47:07;;;;;;;2.53;0.82;;;18.80;46.10;;;;;;6171398;28;20277;-66
2022/02/21 11:50:19;;;;;;;4.78;1.20;;;18.90;46.10;;;;;;6171058;28;20027;-66
2022/02/21 11:53:26;;;;;;;2.60;0.90;;;18.90;46.00;;;;;;6171567;28;20378;-67
2022/02/21 11:56:51;;;;;;;2.78;0.90;;;18.90;46.00;;;;;;6171331;28;20050;-64
2022/02/21 11:59:52;;;;;;;3.03;0.93;;;18.90;45.80;;;;;;6170993;28;20038;-67
2022/02/21 12:03:14;;;;;;;1.98;1.00;;;18.90;45.80;;;;;;6171420;28;20502;-67
2022/02/21 12:06:15;;;;;;;4.15;1.20;;;18.90;45.80;;;;;;6170710;28;20031;-66
2022/02/21 12:09:15;;;;;;;4.00;1.17;;;18.90;45.70;;;;;;6171709;28;20382;-67
2022/02/21 12:12:50;;;;;;;3.55;1.15;;;18.90;45.50;;;;;;6169947;28;20039;-67
2022/02/21 12:16:08;;;;;;;6.05;1.35;;;18.90;45.90;;;;;;6152709;28;20071;-67
2022/02/21 12:19:25;;;;;;;3.40;1.10;;;18.90;46.10;;;;;;6167537;28;20576;-67
2022/02/21 12:22:27;;;;;;;3.53;1.05;;;18.90;46.10;;;;;;6170351;28;20126;-67
2022/02/21 12:25:27;;;;;;;2.20;0.80;;;18.90;46.00;;;;;;6166720;28;20019;-67
2022/02/21 12:28:29;;;;;;;3.90;1.30;;;18.90;46.10;;;;;;6185722;28;20150;-66
2022/02/21 12:31:30;;;;;;;8.20;1.23;;;18.90;46.10;;;;;;6171349;28;20031;-65
2022/02/21 12:34:33;;;;;;;2.95;1.08;;;18.90;46.00;;;;;;6169698;28;20041;-66
2022/02/21 12:37:36;;;;;;;3.83;0.88;;;18.90;46.00;;;;;;6170449;28;20058;-67
2022/02/21 12:40:36;;;;;;;2.33;0.90;;;18.90;46.00;;;;;;6170129;28;20498;-67
2022/02/21 12:43:55;;;;;;;4.50;1.33;;;18.90;46.10;;;;;;6170829;28;20126;-67
2022/02/21 12:47:00;;;;;;;3.85;1.35;;;18.80;46.00;;;;;;6170206;28;20027;-67
2022/02/21 12:50:04;;;;;;;4.78;1.52;;;18.80;45.80;;;;;;6170124;28;20478;-67
2022/02/21 12:53:07;;;;;;;4.72;1.40;;;18.80;45.70;;;;;;6170306;28;20064;-66
2022/02/21 12:56:07;;;;;;;2.85;1.33;;;18.80;45.80;;;;;;6168043;28;20089;-67
2022/02/21 12:59:08;;;;;;;5.32;1.38;;;18.80;45.50;;;;;;6169902;28;20039;-67
2022/02/21 13:02:11;;;;;;;3.03;1.20;;;18.80;45.50;;;;;;6170661;28;20146;-66
2022/02/21 13:05:14;;;;;;;4.85;1.30;;;18.80;45.70;;;;;;6169484;28;20038;-67
2022/02/21 13:08:15;;;;;;;4.70;1.30;;;18.80;45.70;;;;;;6169976;28;20026;-66
2022/02/21 13:11:23;;;;;;;2.58;1.20;;;18.80;45.70;;;;;;6170322;28;20027;-67
2022/02/21 13:14:26;;;;;;;1.98;0.80;;;18.80;45.80;;;;;;6169684;28;20023;-67
2022/02/21 13:17:28;;;;;;;4.22;1.13;;;18.80;45.80;;;;;;6169612;28;20056;-67
2022/02/21 13:20:31;;;;;;;4.28;1.35;;;18.80;45.90;;;;;;6170084;28;20508;-67
2022/02/21 13:23:31;;;;;;;3.13;1.10;;;18.80;45.90;;;;;;6169863;28;20022;-67
2022/02/21 13:26:48;;;;;;;2.53;1.15;;;18.90;46.00;;;;;;6174248;28;20125;-67
2022/02/21 13:29:51;;;;;;;2.45;0.90;;;18.90;46.10;;;;;;6193874;28;20029;-67
2022/02/21 13:33:08;;;;;;;4.10;1.40;;;18.80;46.00;;;;;;6178237;28;20125;-67
2022/02/21 13:36:08;;;;;;;2.20;0.90;;;18.80;46.00;;;;;;6144747;28;20490;-66
2022/02/21 13:39:09;;;;;;;4.03;1.15;;;18.90;46.00;;;;;;6145209;28;21067;-65
2022/02/21 13:42:32;;;;;;;2.63;1.10;;;18.90;46.10;;;;;;6135918;28;20114;-65
2022/02/21 13:45:37;;;;;;;4.07;1.10;;;18.90;46.00;;;;;;6169000;28;20035;-67
2022/02/21 13:48:46;;;;;;;3.47;0.82;;;18.90;46.10;;;;;;6169186;28;20027;-67
2022/02/21 13:52:02;;;;;;;2.72;0.98;;;18.80;46.00;;;;;;6169615;28;20533;-67
2022/02/21 13:55:24;;;;;;;2.13;0.88;;;18.80;46.10;;;;;;6168566;28;20050;-67
2022/02/21 13:58:28;;;;;;;5.82;1.05;;;18.90;46.10;;;;;;6169242;28;20069;-67
2022/02/21 14:01:29;;;;;;;2.30;0.98;;;18.90;46.10;;;;;;6160210;28;20054;-67
2022/02/21 14:04:29;;;;;;;2.78;1.15;;;18.90;46.20;;;;;;6167964;28;20063;-67
2022/02/21 14:07:30;;;;;;;3.85;1.40;;;18.80;46.10;;;;;;6169927;28;20019;-67
2022/02/21 14:10:31;;;;;;;3.90;1.15;;;18.80;46.10;;;;;;6169306;28;20034;-67
2022/02/21 14:13:32;;;;;;;4.05;1.25;;;18.90;46.10;;;;;;6169561;28;20019;-67
2022/02/21 14:16:33;;;;;;;3.97;1.00;;;18.90;46.20;;;;;;6168926;28;20030;-67
2022/02/21 14:19:33;;;;;;;3.22;1.15;;;18.90;46.20;;;;;;6167574;28;20118;-67
2022/02/21 14:22:34;;;;;;;3.83;0.98;;;18.80;46.10;;;;;;6161479;28;20070;-67
2022/02/21 14:25:34;;;;;;;2.00;0.95;;;18.90;46.20;;;;;;6143896;28;20038;-67
2022/02/21 14:28:35;;;;;;;2.88;1.02;;;18.80;46.10;;;;;;6166762;28;20038;-67
2022/02/21 14:31:35;;;;;;;3.25;1.00;;;18.80;46.10;;;;;;6168899;28;20579;-67
2022/02/21 14:34:36;;;;;;;2.20;0.98;;;18.80;46.20;;;;;;6168376;28;20031;-67
2022/02/21 14:37:36;;;;;;;2.65;0.90;;;18.80;46.20;;;;;;6168738;28;20037;-67
2022/02/21 14:40:38;;;;;;;3.65;1.10;;;18.80;46.10;;;;;;6169134;28;20050;-66
2022/02/21 14:43:38;;;;;;;5.18;1.45;;;18.80;46.00;;;;;;6148323;28;20090;-67
2022/02/21 14:46:39;;;;;;;4.30;1.40;;;18.80;45.10;;;;;;6144434;29;20023;-67
2022/02/21 14:49:42;;;;;;;5.88;1.63;;;18.80;44.20;;;;;;6159744;28;20086;-66
2022/02/21 14:52:43;;;;;;;5.10;1.60;;;18.80;43.90;;;;;;6173656;28;20093;-66
2022/02/21 14:55:46;;;;;;;7.38;2.25;;;18.80;43.50;;;;;;6172061;28;20050;-68
2022/02/21 14:58:48;;;;;;;2.90;0.90;;;18.80;43.00;;;;;;6173266;28;20594;-67
2022/02/21 15:01:49;;;;;;;5.28;1.80;;;18.70;42.80;;;;;;6172641;28;20379;-66
2022/02/21 15:04:49;;;;;;;6.40;1.85;;;18.70;43.00;;;;;;6165474;28;20062;-65
2022/02/21 15:07:50;;;;;;;4.38;1.48;;;18.70;42.70;;;;;;6162784;28;20090;-67
2022/02/21 15:10:50;;;;;;;8.68;1.63;;;18.70;42.40;;;;;;6174216;28;20509;-67
2022/02/21 15:13:51;;;;;;;6.55;1.75;;;18.70;42.30;;;;;;6163861;28;20063;-67
2022/02/21 15:16:54;;;;;;;6.55;1.48;;;18.70;42.00;;;;;;6149772;28;20027;-67
2022/02/21 15:19:54;;;;;;;8.55;2.05;;;18.70;42.10;;;;;;6160135;28;20041;-67
2022/02/21 15:22:55;;;;;;;11.68;1.63;;;18.70;42.00;;;;;;6173658;28;20406;-66
2022/02/21 15:25:55;;;;;;;4.80;1.65;;;18.70;41.50;;;;;;6173737;28;20043;-67
2022/02/21 15:28:57;;;;;;;5.10;1.52;;;18.70;40.80;;;;;;6197688;28;20385;-66
2022/02/21 15:31:58;;;;;;;5.70;1.55;;;18.70;41.40;;;;;;6195911;28;20366;-66
2022/02/21 15:34:59;;;;;;;3.88;1.58;;;18.70;41.90;;;;;;6168299;28;20073;-65
2022/02/21 15:37:59;;;;;;;4.00;1.33;;;18.70;42.00;;;;;;6173827;28;20054;-68
2022/02/21 15:41:00;;;;;;;7.35;1.50;;;18.70;42.40;;;;;;6173426;28;20031;-67
2022/02/21 15:44:00;;;;;;;3.13;1.23;;;18.70;42.60;;;;;;6172831;28;20041;-67
2022/02/21 15:47:01;;;;;;;4.15;1.25;;;18.70;42.70;;;;;;6172693;28;20038;-67
2022/02/21 15:50:03;;;;;;;8.13;1.60;;;18.70;42.90;;;;;;6172565;28;20114;-66